Duane, New York
Current Conditions -  °F | °C
As of 7:21 PM on Saturday 20 Dec 2014 (Local Time) from KSLK Reporting Station
Scattered Clouds Scattered Clouds  
Wind Chill: 13°   Ceiling: Unl
Heat Index: 13°   Visibility: 10mi
Dew Point:   Wind: 3mph
Humidity: 84%   Direction: 20°NNE
Pressure: 30.19"   Gusts: NA
Location:  44.7347°N, 74.2672°W
Report Text: KSLK 210021Z AUTO 02003KT 10SM SCT007 M11/M13 A3019 RMK AO2 T11061128 $
Loading
Personal Weather Stations






























Interactive Weather Map New forecast layout! Learn more

10-Day Weather Forecast

Advertisements
Track Severe Weather on mobile